Central Sierra Snow Lab Weather observations

Data are for 10 minute period ending at time listed.
 Day   Time    Incoming  Reflected   Ave.   Ave.    Ave.    Vector  Max.    Ave.    Total    Snow   
  of    of      Solar     Solar      Air    Rel.    Wind    Wind    Wind   Baro.   Precip.   Depth  
Year   Day     Radiation Radiation   Temp.  Humid.  Speed   Dir.    Gust   Press.                   
2021   (PST)    Kw/m2     Kw/m2       F       %      mph     deg.    mph     mb.     in.      in.   
----------------------------------------------------------------------------------------------------
 170   10:10    0.832     999.000     78.2     22     2.5     214     7.2   793.60    8.77   -4.50  
 170   10:20    0.851     999.000     78.3     22     2.8     227     5.8   793.60    8.77   -4.50  
 170   10:30    0.861     999.000     78.3     21     3.2     210     8.6   793.60    8.78   -4.40  
 170   10:40    0.874     999.000     77.9     22     3.7     204     8.4   793.70    8.75   -4.20  
 170   10:50    0.886     999.000     78.5     20     3.3     218     8.4   793.60    8.76   -4.40  
 170   11:00    0.892     999.000     78.7     21     3.5     201     8.3   793.60    8.75   -4.30  
 170   11:10    0.903     999.000     78.6     21     4.0     193    10.1   793.60    8.75   -4.10  
 170   11:20    0.907     999.000     79.4     21     3.2     240     6.2   793.50    8.75   -4.70  
 170   11:30    0.916     999.000     79.4     22     3.3     213     6.8   793.50    8.76   -4.40  
 170   11:40    0.920     999.000     79.9     22     2.8     197     6.8   793.50    8.77   -4.50  
 170   11:50    0.921     999.000     80.1     21     2.9     213     7.2   793.50    8.77   -4.70  
 170   12:00    0.926     999.000     79.6     21     3.5     238     8.6   793.50    8.76   -4.60  
 170   12:10    0.944     999.000     80.1     22     3.2     201     6.6   793.40    8.75   -4.40  
 170   12:20    0.938     999.000     80.1     21     3.7     224     8.5   793.40    8.77   -4.40  
 170   12:30    0.938     999.000     80.5     21     3.1     214     9.1   793.40    8.76   -4.30  
 170   12:40    0.944     999.000     80.5     21     3.6     191     8.7   793.30    8.77   -4.50  
 170   12:50    0.861     999.000     81.3     21     2.8     240     7.4   793.20    8.76   -4.50  
 170   13:00    0.800     999.000     80.8     22     2.4     205     6.0   793.20    8.76   -4.20  
 170   13:10    0.918     999.000     81.2     20     2.9     282     9.6   793.10    8.76   -4.30  
 170   13:20    0.903     999.000     80.5     21     3.2     214     8.9   793.20    8.74   -4.20  
 170   13:30    0.907     999.000     80.8     21     4.1     243     9.4   793.20    8.77   -4.30  
 170   13:40    0.893     999.000     81.0     21     3.7     247    11.0   793.10    8.76   -4.20  
 170   13:50    0.766     999.000     80.5     20     4.5     249    10.9   793.10    8.76   -4.20  
 170   14:00    0.791     999.000     79.5     20     4.1     226    10.9   793.10    8.76   -4.00  
 170   14:10    0.855     999.000     80.4     19     3.7     232    10.8   793.00    8.76   -4.00  
 170   14:20    0.830     999.000     80.6     17     3.6     239     8.7   793.00    8.76   -4.00  
 170   14:30    0.808     999.000     81.1     18     4.1     252    10.8   793.00    8.75   -4.10  
 170   14:40    0.782     999.000     81.0     16     3.1     230     8.1   793.00    8.77   -4.10  
 170   14:50    0.751     999.000     80.8     16     3.8     259     7.6   792.90    8.76   -4.20  
 170   15:00    0.732     999.000     80.9     16     3.2     222     8.5   792.80    8.76   -4.00  
 170   15:10    0.708     999.000     81.4     16     3.4     204     7.2   792.80    8.77   -3.90  
 170   15:20    0.690     999.000     81.5     16     3.4     221     9.5   792.80    8.76   -4.10  
 170   15:30    0.656     999.000     80.9     15     3.5     213     7.9   792.80    8.77   -4.10  
 170   15:40    0.636     999.000     81.6     15     2.6     238     7.2   792.80    8.77   -4.10  
 170   15:50    0.608     999.000     81.3     14     3.5     238     9.1   792.80    8.77   -4.10  
 170   16:00    0.573     999.000     81.4     14     3.0     230     8.5   792.70    8.76   -4.00  
 170   16:10    0.352     999.000     81.7     15     2.3     215     5.9   792.70    8.77   -3.90  
 170   16:20    0.490     999.000     80.9     14     3.7     219     8.9   792.70    8.76   -3.90  
 170   16:30    0.384     999.000     80.3     13     3.0     197     5.7   792.70    8.76   -3.80  
 170   16:40    0.464     999.000     80.2     14     3.6     214    10.1   792.60    8.76   -3.90  
 170   16:50    0.428     999.000     80.3     13     3.3     233     8.6   792.50    8.76   -4.00  
 170   17:00    0.389     999.000     80.6     15     2.6     232     8.0   792.50    8.77   -4.00  
 170   17:10    0.358     999.000     80.5     16     2.6     252     7.9   792.50    8.76   -4.10  
 170   17:20    0.333     999.000     79.6     18     3.1     240     6.8   792.60    8.77   -4.10  
 170   17:30    0.302     999.000     79.6     18     2.5     226     5.2   792.60    8.76   -4.10  
 170   17:40    0.269     999.000     78.9     18     3.1     211     6.8   792.70    8.76   -4.10  
 170   17:50    0.243     999.000     77.9     21     2.5     220     6.9   792.70    8.77   -4.00  
 170   18:00    0.190     999.000     77.7     22     2.2     210     4.8   792.70    8.76   -4.10  
 170   18:10    0.176     999.000     76.9     22     2.2     221     6.9   792.70    8.76   -4.10  
 170   18:20    0.157     999.000     76.9     23     2.1     224     6.8   792.70    8.76   -4.10  
 170   18:30    0.110     999.000     76.2     24     1.8     218     4.6   792.80    8.76   -3.80  
 170   18:40    0.038     999.000     74.9     26     1.4     231     6.5   792.90    8.77   -3.70  
 170   18:50    0.025     999.000     73.5     28     1.1     207     4.0   792.90    8.76   -3.70  
 170   19:00    0.021     999.000     72.8     28     1.8     234     6.2   793.00    8.77   -3.50  
 170   19:10    0.016     999.000     72.2     29     0.9     204     2.9   793.00    8.77   -3.50  
 170   19:20    0.011     999.000     71.5     31     0.7     272     2.6   793.00    8.77   11.60  
 170   19:30    0.006     999.000     70.1     34     1.1      33     2.2   793.10    8.77   -3.50  
 170   19:40    0.002     999.000     68.0     38     1.9      35     2.7   793.20    8.77   71.00  
 170   19:50    0.001     999.000     66.5     42     2.2      31     3.1   793.30    8.77   164.10  
 170   20:00    0.000     999.000     65.5     43     2.2      31     3.4   793.30    8.77   164.50  
 170   20:10    0.000     999.000     64.5     45     2.9      27     3.7   793.40    8.77   164.40  
 170   20:20    0.000     999.000     63.8     46     2.7      22     3.7   793.40    8.77   164.50  
 170   20:30    0.000     999.000     63.0     48     2.4      22     3.4   793.50    8.77   164.50  
 170   20:40    0.000     999.000     62.3     50     2.1      21     2.8   793.60    8.77   164.50  
 170   20:50    0.000     999.000     61.6     51     1.6      32     2.5   793.70    8.77   164.60  
 170   21:00    0.000     999.000     61.0     52     2.2      31     3.4   793.70    8.78   164.60  
 170   21:10    0.000     999.000     60.6     52     2.2      33     3.2   793.80    8.78   164.60  
 170   21:20    0.000     999.000     60.1     54     2.4      33     3.8   793.80    8.78   164.60  
 170   21:30    0.000     999.000     59.6     54     1.8      34     3.0   793.80    8.78   164.60  
 170   21:40    0.000     999.000     59.2     54     2.4      28     3.6   793.80    8.79   164.60  
 170   21:50    0.000     999.000     58.8     54     2.3      32     2.9   793.80    8.79   164.60  
 170   22:00    0.000     999.000     58.3     54     3.0      31     4.2   793.80    8.78   164.60  
 170   22:10    0.000     999.000     58.0     54     3.2      32     4.0   793.70    8.78   164.60  
 170   22:20    0.000     999.000     57.7     54     2.0      34     3.0   793.70    8.78   164.60  
 170   22:30    0.000     999.000     57.4     54     1.9      30     3.4   793.70    8.78   164.60  
 170   22:40    0.000     999.000     57.2     54     2.7      30     3.7   793.70    8.78   164.60  
 170   22:50    0.000     999.000     57.0     54     2.9      31     3.6   793.70    8.78   164.60  
 170   23:00    0.000     999.000     56.7     54     2.2      30     2.9   793.70    8.78   164.70  
 170   23:10    0.000     999.000     56.4     53     3.2      28     3.8   793.70    8.78   164.60  
 170   23:20    0.000     999.000     56.0     53     2.8      32     4.3   793.70    8.79   164.60  
 170   23:30    0.000     999.000     55.7     52     2.3      36     4.0   793.70    8.78   164.60  
 170   23:40    0.000     999.000     55.5     53     2.4      31     3.9   793.70    8.78   164.60  
 170   23:50    0.000     999.000     55.3     54     3.0      29     4.0   793.70    8.79   164.70  
 171    0:00    0.000     999.000     55.2     54     2.3      31     3.9   793.70    8.79   164.70  
 171    0:10    0.000     999.000     55.0     54     2.7      28     3.6   793.70    8.79   164.70  
 171    0:20    0.000     999.000     54.9     54     3.4      28     3.9   793.70    8.78   164.60  
 171    0:30    0.000     999.000     54.8     55     3.6      24     4.3   793.70    8.78   164.60  
 171    0:40    0.000     999.000     54.6     56     2.7      28     4.0   793.60    8.79   164.60  
 171    0:50    0.000     999.000     54.3     56     2.5      33     4.1   793.60    8.78   164.70  
 171    1:00    0.000     999.000     54.0     58     2.0      34     2.9   793.60    8.79   164.70  
 171    1:10    0.000     999.000     53.9     58     2.3      32     3.3   793.60    8.79   164.70  
 171    1:20    0.000     999.000     53.7     59     2.6      34     4.0   793.50    8.79   164.70  
 171    1:30    0.000     999.000     53.6     60     2.4      32     4.0   793.50    8.79   164.70  
 171    1:40    0.000     999.000     53.5     60     2.4      30     3.1   793.50    8.79   164.70  
 171    1:50    0.000     999.000     53.4     60     2.6      32     3.4   793.50    8.79   164.70  
 171    2:00    0.000     999.000     53.2     60     1.4      37     1.8   793.50    8.79   164.70  
 171    2:10    0.000     999.000     53.0     60     2.0      36     3.4   793.50    8.79   164.70  
 171    2:20    0.000     999.000     52.8     60     1.9      33     2.9   793.50    8.79   164.70  
 171    2:30    0.000     999.000     52.6     60     2.7      31     3.8   793.40    8.79   164.80  
 171    2:40    0.000     999.000     52.4     60     2.6      31     3.8   793.50    8.78   164.80  
 171    2:50    0.000     999.000     52.3     60     2.0      34     2.7   793.40    8.79   164.70  
 171    3:00    0.000     999.000     52.2     60     2.8      30     3.7   793.40    8.78   164.80  
 171    3:10    0.000     999.000     52.0     61     1.7      36     2.5   793.50    8.78   164.80  
 171    3:20    0.000     999.000     51.9     61     3.0      31     4.1   793.50    8.78   164.80  
 171    3:30    0.000     999.000     51.9     62     2.0      35     3.7   793.50    8.78   164.80  
 171    3:40    0.000     999.000     51.6     62     2.4      33     3.8   793.50    8.79   164.80  
 171    3:50    0.000     999.000     51.6     62     2.7      33     4.2   793.50    8.79   164.80  
 171    4:00    0.000     999.000     51.5     62     2.9      32     3.6   793.50    8.79   164.80  
 171    4:10    0.000     999.000     51.5     62     2.4      31     3.6   793.60    8.78   164.80  
 171    4:20    0.000     999.000     51.5     62     3.0      31     3.8   793.60    8.78   164.80  
 171    4:30    0.001     999.000     51.5     61     2.5      31     3.7   793.60    8.79   164.80  
 171    4:40    0.002     999.000     51.6     61     2.6      34     4.3   793.60    8.79   164.80  
 171    4:50    0.006     999.000     51.7     61     2.7      32     3.5   793.70    8.79   164.80  
 171    5:00    0.012     999.000     51.9     61     2.9      31     3.6   793.70    8.79   164.70  
 171    5:10    0.018     999.000     52.0     62     2.4      33     3.1   793.70    8.79   164.80  
 171    5:20    0.022     999.000     52.2     62     1.8      38     3.1   793.70    8.79   164.70  
 171    5:30    0.027     999.000     52.5     62     2.2      34     4.0   793.80    8.79   164.80  
 171    5:40    0.034     999.000     52.8     63     1.4      36     1.9   793.80    8.79   164.70  
 171    5:50    0.038     999.000     53.2     64     1.5      37     2.2   793.90    8.79   164.70  
 171    6:00    0.043     999.000     53.6     65     1.2      42     2.0   793.90    8.79   164.70  
 171    6:10    0.047     999.000     54.0     67     1.2      44     1.5   794.00    8.78   164.70  
 171    6:20    0.056     999.000     54.8     67     1.4      39     2.4   794.00    8.79   164.70  
 171    6:30    0.076     999.000     55.8     66     1.2      41     2.2   794.00    8.79   164.60  
 171    6:40    0.089     999.000     56.8     64     0.7      48     1.6   794.00    8.79   164.60  
 171    6:50    0.187     999.000     58.1     63     0.6      48     1.4   794.00    8.78   164.60  
 171    7:00    0.217     999.000     59.9     60     0.2      48     1.2   794.10    8.79   164.50  
 171    7:10    0.335     999.000     62.1     58     0.0       0     0.0   794.00    8.79   130.50  
 171    7:20    0.270     999.000     64.8     54     0.0       0     0.0   794.10    8.79   147.00  
 171    7:30    0.364     999.000     66.6     53     0.0       0     0.0   794.10    8.78   151.40  
 171    7:40    0.460     999.000     67.7     52     0.0       0     0.0   794.10    8.78   47.20  
 171    7:50    0.490     999.000     69.0     48     0.0       0     0.0   794.20    8.78   -4.80  
 171    8:00    0.520     999.000     71.0     34     0.2      74     1.6   794.20    8.78   -4.80  
 171    8:10    0.549     999.000     72.8     27     1.1     165     3.2   794.20    8.78   -4.80  
 171    8:20    0.577     999.000     75.1     25     1.0     152     3.3   794.20    8.78   -5.10  
 171    8:30    0.606     999.000     74.4     25     1.7     170     4.3   794.20    8.77   -4.80  
 171    8:40    0.634     999.000     74.5     25     1.3     163     4.0   794.20    8.78   -4.80  
 171    8:50    0.659     999.000     74.8     25     1.1     244     3.6   794.20    8.78   -4.70  
 171    9:00    0.687     999.000     75.1     23     1.5     216     3.6   794.20    8.77   -5.00  
 171    9:10    0.708     999.000     75.0     22     2.0     183     3.9   794.20    8.78   -4.70  
 171    9:20    0.731     999.000     75.2     22     2.4     224     6.1   794.20    8.78   -4.60  
 171    9:30    0.756     999.000     76.2     19     2.1     237     5.9   794.30    8.77   -4.60  
 171    9:40    0.788     999.000     76.2     21     3.0     188     7.5   794.30    8.76   -4.50  
 171    9:50    0.800     999.000     75.9     21     3.4     183     9.4   794.30    8.77   -4.40  
 171   10:00    0.819     999.000     76.0     20     3.6     188    14.7   794.30    8.77   -4.10  

Return to Central Sierra Snow Lab graphs page.


Western Regional Climate Center,wrcc@dri.edu